Crown Topaz — 3FAS9 — position and weather

sailwx.info

Track history (hours):
 
Tides and Currents Weather Stations Pressure Air Temp Water Temp Dewpoint Dewpoint Depression Visibility Wind Speed Wind Dir Waves Ship Positions

Crown Topaz

Last reported at 2016-Jul-01 06:17 UTC. Time now 2016-Jul-01 17:11 UTC.
Position N 17°42' W 062°31'.

Length 152 m; draft 6.9 m.

Type: Cargo ship. MMSI: 357144000.

Date/timePositionNaut miles runAvg speedWind from/ knotsBaromVisibWave heightAir tempDewpointWater temp
2016-Jul-01 06:17N 17°42' W 062°31'28 1.7
2016-Jun-30 13:25N 17°56' W 062°06'  
2016-Jun-26 02:23N 36°11' W 030°46'1718.8
2016-Jun-26 01:29N 36°20' W 030°29'1818.5
2016-Jun-26 00:30N 36°30' W 030°10'1819.1
2016-Jun-25 23:33N 36°40' W 029°51'1919.2
2016-Jun-25 22:33N 36°50' W 029°31'1919.3
2016-Jun-25 21:33N 37°01' W 029°11'1919.1
2016-Jun-25 20:33N 37°11' W 028°51'1919.1
2016-Jun-25 19:33N 37°22' W 028°31'1918.7
2016-Jun-25 18:33N 37°32' W 028°11'1919.3
2016-Jun-25 17:33N 37°43' W 027°51'1919.1
2016-Jun-25 16:34N 37°53' W 027°30'1919.3
2016-Jun-25 15:33N 38°04' W 027°10'1918.8
2016-Jun-25 14:33N 38°14' W 026°50'1918.8
2016-Jun-25 13:33N 38°25' W 026°30'1918.8
2016-Jun-25 12:33N 38°35' W 026°10'1918.8
2016-Jun-25 11:34N 38°45' W 025°50'1919.0
2016-Jun-25 10:33N 38°55' W 025°29'2019.0
2016-Jun-25 09:30N 39°06' W 025°07'  
2016-Jun-23 02:31N 48°48' W 006°34'1818.2
2016-Jun-23 01:33N 48°56' W 006°11'1919.0
2016-Jun-23 00:33N 49°05' W 005°45'2019.7
2016-Jun-22 23:32N 49°14' W 005°17'4419.1
2016-Jun-22 21:14N 49°34' W 004°17'1317.5
2016-Jun-22 20:32N 49°39' W 004°00'1616.8
2016-Jun-22 19:34N 49°47' W 003°38'1716.9
2016-Jun-22 18:33N 49°55' W 003°14'1818.0
2016-Jun-22 17:33N 50°01' W 002°48'8720.8
2016-Jun-22 13:24N 50°25' W 000°38'1619.2
2016-Jun-22 12:33N 50°29' W 000°14'1817.9
2016-Jun-22 11:33N 50°34' E 000°14'3417.1
2016-Jun-22 09:33N 50°49' E 001°01'2019.7
2016-Jun-22 08:33N 51°01' E 001°27'2121.2
2016-Jun-22 07:33N 51°17' E 001°49'1515.3
2016-Jun-22 06:34N 51°22' E 002°12'1717.0
2016-Jun-22 05:33N 51°22' E 002°39'1212.4
2016-Jun-22 04:33N 51°24' E 002°59'1313.1
2016-Jun-22 03:33N 51°24' E 003°20'1211.9
2016-Jun-22 02:33N 51°26' E 003°38'1010.1
2016-Jun-22 01:33N 51°21' E 003°52'7 7.0
2016-Jun-22 00:33N 51°24' E 004°02'7 7.4
2016-Jun-21 23:33N 51°22' E 004°14'3 2.6
2016-Jun-21 22:33N 51°21' E 004°17'0 0.1
2016-Jun-21 21:33N 51°21' E 004°17'4 4.4
2016-Jun-21 20:34N 51°17' E 004°21'2 1.7
2016-Jun-21 19:34N 51°16' E 004°23'0 0.0
2016-Jun-21 18:34N 51°16' E 004°23'0 0.0
2016-Jun-21 17:34N 51°16' E 004°23'0 0.0
2016-Jun-21 16:34N 51°16' E 004°23'0 0.0
2016-Jun-21 15:33N 51°16' E 004°23'0 0.0
2016-Jun-21 14:34N 51°16' E 004°23'0 0.0
2016-Jun-21 13:33N 51°16' E 004°23'0 0.0
2016-Jun-21 12:33N 51°16' E 004°23'0 0.0
2016-Jun-21 11:31N 51°16' E 004°23'0 0.0
2016-Jun-21 10:34N 51°16' E 004°23'0 0.0
2016-Jun-21 09:34N 51°16' E 004°23'0 0.0
2016-Jun-21 08:33N 51°16' E 004°23'0 0.0
2016-Jun-21 07:31N 51°16' E 004°23'0 0.0
2016-Jun-21 06:27N 51°16' E 004°23'  
Track history (hours):
 
Tides and Currents Weather Stations Pressure Air Temp Water Temp Dewpoint Dewpoint Depression Visibility Wind Speed Wind Dir Waves Ship Positions

Crown Topaz

Last reported at 2016-Jul-01 06:17 UTC. Time now 2016-Jul-01 17:11 UTC.
Position N 17°42' W 062°31'.

Length 152 m; draft 6.9 m.

Type: Cargo ship. MMSI: 357144000.

Date/timePositionNaut miles runAvg speedWind from/ knotsBaromVisibWave heightAir tempDewpointWater temp
2016-Jul-01 06:17N 17°42' W 062°31'28 1.7
2016-Jun-30 13:25N 17°56' W 062°06'  
2016-Jun-26 02:23N 36°11' W 030°46'1718.8
2016-Jun-26 01:29N 36°20' W 030°29'1818.5
2016-Jun-26 00:30N 36°30' W 030°10'1819.1
2016-Jun-25 23:33N 36°40' W 029°51'1919.2
2016-Jun-25 22:33N 36°50' W 029°31'1919.3
2016-Jun-25 21:33N 37°01' W 029°11'1919.1
2016-Jun-25 20:33N 37°11' W 028°51'1919.1
2016-Jun-25 19:33N 37°22' W 028°31'1918.7
2016-Jun-25 18:33N 37°32' W 028°11'1919.3
2016-Jun-25 17:33N 37°43' W 027°51'1919.1
2016-Jun-25 16:34N 37°53' W 027°30'1919.3
2016-Jun-25 15:33N 38°04' W 027°10'1918.8
2016-Jun-25 14:33N 38°14' W 026°50'1918.8
2016-Jun-25 13:33N 38°25' W 026°30'1918.8
2016-Jun-25 12:33N 38°35' W 026°10'1918.8
2016-Jun-25 11:34N 38°45' W 025°50'1919.0
2016-Jun-25 10:33N 38°55' W 025°29'2019.0
2016-Jun-25 09:30N 39°06' W 025°07'  
2016-Jun-23 02:31N 48°48' W 006°34'1818.2
2016-Jun-23 01:33N 48°56' W 006°11'1919.0
2016-Jun-23 00:33N 49°05' W 005°45'2019.7
2016-Jun-22 23:32N 49°14' W 005°17'4419.1
2016-Jun-22 21:14N 49°34' W 004°17'1317.5
2016-Jun-22 20:32N 49°39' W 004°00'1616.8
2016-Jun-22 19:34N 49°47' W 003°38'1716.9
2016-Jun-22 18:33N 49°55' W 003°14'1818.0
2016-Jun-22 17:33N 50°01' W 002°48'8720.8
2016-Jun-22 13:24N 50°25' W 000°38'1619.2
2016-Jun-22 12:33N 50°29' W 000°14'1817.9
2016-Jun-22 11:33N 50°34' E 000°14'3417.1
2016-Jun-22 09:33N 50°49' E 001°01'2019.7
2016-Jun-22 08:33N 51°01' E 001°27'2121.2
2016-Jun-22 07:33N 51°17' E 001°49'1515.3
2016-Jun-22 06:34N 51°22' E 002°12'1717.0
2016-Jun-22 05:33N 51°22' E 002°39'1212.4
2016-Jun-22 04:33N 51°24' E 002°59'1313.1
2016-Jun-22 03:33N 51°24' E 003°20'1211.9
2016-Jun-22 02:33N 51°26' E 003°38'1010.1
2016-Jun-22 01:33N 51°21' E 003°52'7 7.0
2016-Jun-22 00:33N 51°24' E 004°02'7 7.4
2016-Jun-21 23:33N 51°22' E 004°14'3 2.6
2016-Jun-21 22:33N 51°21' E 004°17'0 0.1
2016-Jun-21 21:33N 51°21' E 004°17'4 4.4
2016-Jun-21 20:34N 51°17' E 004°21'2 1.7
2016-Jun-21 19:34N 51°16' E 004°23'0 0.0
2016-Jun-21 18:34N 51°16' E 004°23'0 0.0
2016-Jun-21 17:34N 51°16' E 004°23'0 0.0
2016-Jun-21 16:34N 51°16' E 004°23'0 0.0
2016-Jun-21 15:33N 51°16' E 004°23'0 0.0
2016-Jun-21 14:34N 51°16' E 004°23'0 0.0
2016-Jun-21 13:33N 51°16' E 004°23'0 0.0
2016-Jun-21 12:33N 51°16' E 004°23'0 0.0
2016-Jun-21 11:31N 51°16' E 004°23'0 0.0
2016-Jun-21 10:34N 51°16' E 004°23'0 0.0
2016-Jun-21 09:34N 51°16' E 004°23'0 0.0
2016-Jun-21 08:33N 51°16' E 004°23'0 0.0
2016-Jun-21 07:31N 51°16' E 004°23'0 0.0
2016-Jun-21 06:27N 51°16' E 004°23'  

Dump ship's entire track history